Davis Monthan Air Force Base
KDMA : now visible

Airfield :











YOU CAN JOIN US ON...

 
LOGIN :

Register | Disclaimer

   EN    FR    IT 

 









Legend :    VFR   Marginal VFR   IFR   Intensive IFR   Very Intensive IFR
Visi :
Ceiling :
>= 8 km
>= 3000ft
5 to 8 km
1000 to 3000 ft
1500m to 5 km
500 to 1000 ft
800 to 1500m
200 to 500 ft
< 800m
< 200 ft
Symbols :   Thunderstorms  Fog  Heavy snow  Heavy precipitations  Wind > 20 kt






- Airport Elevation : 2704 ft


KDMA - Davis Monthan Air Force Base

CURRENT METAR :
  • 042158Z AUTO 26009KT 10SM CLR 40/06 A2997 RMK AO2 SLP097 T03980062 FZRANO $

EXPIRED METARs :
  • 042058Z AUTO 24004G17KT 10SM CLR 39/07 A3000 RMK AO2 SLP108 T03900066 57020 FZRANO $
  • 041958Z AUTO 29005KT 10SM CLR 38/09 A3002 RMK AO2 SLP114 T03750091 FZRANO $

TAF TAF KDMA
Valid from the 04 at 22:00 until the 06 at 04:00 UTC


042202Z 0422/0604 27009KT 9999 FEW130 SCT180 QNH2994INS
TEMPO 0422/0502 27012G18KT
BECMG 0507/0508 VRB06KT 9999 FEW180 QNH2997INS
BECMG 0519/0520 26007KT 9999 VCTS SCT140CB BKN180 QNH2989INS
TEMPO 0520/0524 VRB25G35KT 9000 -TSRA BKN130CB
BECMG 0523/0524 26009KT 9999 NSW SCT130 QNH2987INS TX39/0422Z TN27/0512Z
KZAB FIR / North America



MET'MAP, your aeronautical weather chart ! - Copyright ORBIFLY December 2007 - Disclaimer

ORBIFLY MET'MAP TEAM :

Programming & Development : Alexandra Zaïnal
Concept & original design : Baudouin d'Aumeries
Assistance for programming : Marc-Olivier Méhu
Technical & hardware support : Manuel Goepfert

Contact : metmap@orbifly.com




SOURCES & CREDITS :

   NOAA       Earth
Advisory